sensor_id;sensor_type;location;lat;lon;timestamp;temperature;humidity
30371;DHT22;17164;48.590;11.410;2023-08-17T00:01:46;20.40;99.90
30371;DHT22;17164;48.590;11.410;2023-08-17T00:04:11;20.40;99.90
30371;DHT22;17164;48.590;11.410;2023-08-17T00:06:37;20.30;99.90
30371;DHT22;17164;48.590;11.410;2023-08-17T00:09:03;20.20;99.90
30371;DHT22;17164;48.590;11.410;2023-08-17T00:11:29;20.20;99.90
30371;DHT22;17164;48.590;11.410;2023-08-17T00:13:55;20.10;99.90
30371;DHT22;17164;48.590;11.410;2023-08-17T00:16:20;20.10;99.90
30371;DHT22;17164;48.590;11.410;2023-08-17T00:18:47;20.10;99.90
30371;DHT22;17164;48.590;11.410;2023-08-17T00:21:13;20.10;99.90
30371;DHT22;17164;48.590;11.410;2023-08-17T00:23:39;20.10;99.90
30371;DHT22;17164;48.590;11.410;2023-08-17T00:26:04;20.10;99.90
30371;DHT22;17164;48.590;11.410;2023-08-17T00:28:30;20.00;99.90
30371;DHT22;17164;48.590;11.410;2023-08-17T00:30:55;20.00;99.90
30371;DHT22;17164;48.590;11.410;2023-08-17T00:33:21;20.00;99.90
30371;DHT22;17164;48.590;11.410;2023-08-17T00:35:47;19.90;99.90
30371;DHT22;17164;48.590;11.410;2023-08-17T00:38:12;19.90;99.90
30371;DHT22;17164;48.590;11.410;2023-08-17T00:40:38;19.90;99.90
30371;DHT22;17164;48.590;11.410;2023-08-17T00:43:05;19.80;99.90
30371;DHT22;17164;48.590;11.410;2023-08-17T00:45:31;19.70;99.90
30371;DHT22;17164;48.590;11.410;2023-08-17T00:47:57;19.70;99.90
30371;DHT22;17164;48.590;11.410;2023-08-17T00:50:24;19.60;99.90
30371;DHT22;17164;48.590;11.410;2023-08-17T00:52:52;19.70;99.90
30371;DHT22;17164;48.590;11.410;2023-08-17T00:55:19;19.60;99.90
30371;DHT22;17164;48.590;11.410;2023-08-17T00:57:45;19.70;99.90
30371;DHT22;17164;48.590;11.410;2023-08-17T01:00:11;19.60;99.90
30371;DHT22;17164;48.590;11.410;2023-08-17T01:02:41;19.60;99.90
30371;DHT22;17164;48.590;11.410;2023-08-17T01:05:07;19.60;99.90
30371;DHT22;17164;48.590;11.410;2023-08-17T01:07:32;19.60;99.90
30371;DHT22;17164;48.590;11.410;2023-08-17T01:09:58;19.50;99.90
30371;DHT22;17164;48.590;11.410;2023-08-17T01:12:30;19.50;99.90
30371;DHT22;17164;48.590;11.410;2023-08-17T01:15:21;19.50;99.90
30371;DHT22;17164;48.590;11.410;2023-08-17T01:18:03;19.50;99.90
30371;DHT22;17164;48.590;11.410;2023-08-17T01:20:31;19.50;99.90
30371;DHT22;17164;48.590;11.410;2023-08-17T01:23:05;19.50;99.90
30371;DHT22;17164;48.590;11.410;2023-08-17T01:25:31;19.50;99.90
30371;DHT22;17164;48.590;11.410;2023-08-17T01:28:03;19.50;99.90
30371;DHT22;17164;48.590;11.410;2023-08-17T01:30:32;19.50;99.90
30371;DHT22;17164;48.590;11.410;2023-08-17T01:33:07;19.50;99.90
30371;DHT22;17164;48.590;11.410;2023-08-17T01:35:58;19.50;99.90
30371;DHT22;17164;48.590;11.410;2023-08-17T01:38:25;19.40;99.90
30371;DHT22;17164;48.590;11.410;2023-08-17T01:40:53;19.40;99.90
30371;DHT22;17164;48.590;11.410;2023-08-17T01:43:19;19.40;99.90
30371;DHT22;17164;48.590;11.410;2023-08-17T01:45:45;19.30;99.90
30371;DHT22;17164;48.590;11.410;2023-08-17T01:48:11;19.30;99.90
30371;DHT22;17164;48.590;11.410;2023-08-17T01:50:37;19.30;99.90
30371;DHT22;17164;48.590;11.410;2023-08-17T01:53:02;19.30;99.90
30371;DHT22;17164;48.590;11.410;2023-08-17T01:55:28;19.30;99.90
30371;DHT22;17164;48.590;11.410;2023-08-17T01:57:54;19.30;99.90
30371;DHT22;17164;48.590;11.410;2023-08-17T02:00:19;19.30;99.90
30371;DHT22;17164;48.590;11.410;2023-08-17T02:02:45;19.30;99.90
30371;DHT22;17164;48.590;11.410;2023-08-17T02:05:11;19.30;99.90
30371;DHT22;17164;48.590;11.410;2023-08-17T02:07:36;19.30;99.90
30371;DHT22;17164;48.590;11.410;2023-08-17T02:10:02;19.30;99.90
30371;DHT22;17164;48.590;11.410;2023-08-17T02:12:28;19.30;99.90
30371;DHT22;17164;48.590;11.410;2023-08-17T02:14:53;19.20;99.90
30371;DHT22;17164;48.590;11.410;2023-08-17T02:17:19;19.20;99.90
30371;DHT22;17164;48.590;11.410;2023-08-17T02:19:47;19.20;99.90
30371;DHT22;17164;48.590;11.410;2023-08-17T02:22:13;19.20;99.90
30371;DHT22;17164;48.590;11.410;2023-08-17T02:24:39;19.20;99.90
30371;DHT22;17164;48.590;11.410;2023-08-17T02:27:04;19.20;99.90
30371;DHT22;17164;48.590;11.410;2023-08-17T02:29:30;19.20;99.90
30371;DHT22;17164;48.590;11.410;2023-08-17T02:31:56;19.10;99.90
30371;DHT22;17164;48.590;11.410;2023-08-17T02:34:21;19.10;99.90
30371;DHT22;17164;48.590;11.410;2023-08-17T02:36:47;19.00;99.90
30371;DHT22;17164;48.590;11.410;2023-08-17T02:39:13;19.00;99.90
30371;DHT22;17164;48.590;11.410;2023-08-17T02:41:38;18.90;99.90
30371;DHT22;17164;48.590;11.410;2023-08-17T02:44:04;18.90;99.90
30371;DHT22;17164;48.590;11.410;2023-08-17T02:46:30;18.90;99.90
30371;DHT22;17164;48.590;11.410;2023-08-17T02:48:56;18.90;99.90
30371;DHT22;17164;48.590;11.410;2023-08-17T02:51:21;18.90;99.90
30371;DHT22;17164;48.590;11.410;2023-08-17T02:53:47;18.90;99.90
30371;DHT22;17164;48.590;11.410;2023-08-17T02:56:13;18.90;99.90
30371;DHT22;17164;48.590;11.410;2023-08-17T02:58:39;18.90;99.90
30371;DHT22;17164;48.590;11.410;2023-08-17T03:01:09;18.80;99.90
30371;DHT22;17164;48.590;11.410;2023-08-17T03:03:35;18.90;99.90
30371;DHT22;17164;48.590;11.410;2023-08-17T03:06:02;18.90;99.90
30371;DHT22;17164;48.590;11.410;2023-08-17T03:08:27;18.90;99.90
30371;DHT22;17164;48.590;11.410;2023-08-17T03:10:53;18.80;99.90
30371;DHT22;17164;48.590;11.410;2023-08-17T03:13:18;18.80;99.90
30371;DHT22;17164;48.590;11.410;2023-08-17T03:15:44;18.80;99.90
30371;DHT22;17164;48.590;11.410;2023-08-17T03:18:10;18.80;99.90
30371;DHT22;17164;48.590;11.410;2023-08-17T03:20:35;18.80;99.90
30371;DHT22;17164;48.590;11.410;2023-08-17T03:23:01;18.80;99.90
30371;DHT22;17164;48.590;11.410;2023-08-17T03:25:27;18.70;99.90
30371;DHT22;17164;48.590;11.410;2023-08-17T03:27:52;18.70;99.90
30371;DHT22;17164;48.590;11.410;2023-08-17T03:30:18;18.70;99.90
30371;DHT22;17164;48.590;11.410;2023-08-17T03:32:43;18.60;99.90
30371;DHT22;17164;48.590;11.410;2023-08-17T03:35:09;18.60;99.90
30371;DHT22;17164;48.590;11.410;2023-08-17T03:37:35;18.60;99.90
30371;DHT22;17164;48.590;11.410;2023-08-17T03:40:00;18.60;99.90
30371;DHT22;17164;48.590;11.410;2023-08-17T03:42:27;18.60;99.90
30371;DHT22;17164;48.590;11.410;2023-08-17T03:44:52;18.50;99.90
30371;DHT22;17164;48.590;11.410;2023-08-17T03:47:18;18.50;99.90
30371;DHT22;17164;48.590;11.410;2023-08-17T03:49:44;18.50;99.90
30371;DHT22;17164;48.590;11.410;2023-08-17T03:52:10;18.50;99.90
30371;DHT22;17164;48.590;11.410;2023-08-17T03:54:36;18.50;99.90
30371;DHT22;17164;48.590;11.410;2023-08-17T03:57:02;18.50;99.90
30371;DHT22;17164;48.590;11.410;2023-08-17T03:59:27;18.50;99.90
30371;DHT22;17164;48.590;11.410;2023-08-17T04:01:53;18.50;99.90
30371;DHT22;17164;48.590;11.410;2023-08-17T04:04:19;18.50;99.90
30371;DHT22;17164;48.590;11.410;2023-08-17T04:06:44;18.50;99.90
30371;DHT22;17164;48.590;11.410;2023-08-17T04:09:10;18.50;99.90
30371;DHT22;17164;48.590;11.410;2023-08-17T04:11:36;18.40;99.90
30371;DHT22;17164;48.590;11.410;2023-08-17T04:14:05;18.40;99.90
30371;DHT22;17164;48.590;11.410;2023-08-17T04:16:30;18.40;99.90
30371;DHT22;17164;48.590;11.410;2023-08-17T04:18:56;18.30;99.90
30371;DHT22;17164;48.590;11.410;2023-08-17T04:21:21;18.30;99.90
30371;DHT22;17164;48.590;11.410;2023-08-17T04:23:47;18.20;99.90
30371;DHT22;17164;48.590;11.410;2023-08-17T04:26:13;18.20;99.90
30371;DHT22;17164;48.590;11.410;2023-08-17T04:28:38;18.20;99.90
30371;DHT22;17164;48.590;11.410;2023-08-17T04:31:04;18.20;99.90
30371;DHT22;17164;48.590;11.410;2023-08-17T04:33:30;18.20;99.90
30371;DHT22;17164;48.590;11.410;2023-08-17T04:35:55;18.30;99.90
30371;DHT22;17164;48.590;11.410;2023-08-17T04:38:21;18.30;99.90
30371;DHT22;17164;48.590;11.410;2023-08-17T04:40:47;18.30;99.90
30371;DHT22;17164;48.590;11.410;2023-08-17T04:43:13;18.40;99.90
30371;DHT22;17164;48.590;11.410;2023-08-17T04:45:39;18.40;99.90
30371;DHT22;17164;48.590;11.410;2023-08-17T04:48:05;18.30;99.90
30371;DHT22;17164;48.590;11.410;2023-08-17T04:50:31;18.40;99.90
30371;DHT22;17164;48.590;11.410;2023-08-17T04:52:57;18.40;99.90
30371;DHT22;17164;48.590;11.410;2023-08-17T04:55:23;18.40;99.90
30371;DHT22;17164;48.590;11.410;2023-08-17T04:57:49;18.40;99.90
30371;DHT22;17164;48.590;11.410;2023-08-17T05:00:15;18.40;99.90
30371;DHT22;17164;48.590;11.410;2023-08-17T05:02:41;18.40;99.90
30371;DHT22;17164;48.590;11.410;2023-08-17T05:05:09;18.40;99.90
30371;DHT22;17164;48.590;11.410;2023-08-17T05:07:35;18.40;99.90
30371;DHT22;17164;48.590;11.410;2023-08-17T05:10:01;18.50;99.90
30371;DHT22;17164;48.590;11.410;2023-08-17T05:12:27;18.50;99.90
30371;DHT22;17164;48.590;11.410;2023-08-17T05:14:52;18.50;99.90
30371;DHT22;17164;48.590;11.410;2023-08-17T05:17:18;18.60;99.90
30371;DHT22;17164;48.590;11.410;2023-08-17T05:19:44;18.70;99.90
30371;DHT22;17164;48.590;11.410;2023-08-17T05:22:11;18.70;99.90
30371;DHT22;17164;48.590;11.410;2023-08-17T05:24:37;18.80;99.90
30371;DHT22;17164;48.590;11.410;2023-08-17T05:27:03;18.90;99.90
30371;DHT22;17164;48.590;11.410;2023-08-17T05:29:29;18.90;99.90
30371;DHT22;17164;48.590;11.410;2023-08-17T05:31:54;18.90;99.90
30371;DHT22;17164;48.590;11.410;2023-08-17T05:34:20;19.00;99.90
30371;DHT22;17164;48.590;11.410;2023-08-17T05:36:46;19.00;99.90
30371;DHT22;17164;48.590;11.410;2023-08-17T05:39:11;19.10;99.90
30371;DHT22;17164;48.590;11.410;2023-08-17T05:41:37;19.20;99.90
30371;DHT22;17164;48.590;11.410;2023-08-17T05:44:03;19.20;99.90
30371;DHT22;17164;48.590;11.410;2023-08-17T05:46:28;19.30;99.90
30371;DHT22;17164;48.590;11.410;2023-08-17T05:48:54;19.30;99.90
30371;DHT22;17164;48.590;11.410;2023-08-17T05:51:20;19.40;99.90
30371;DHT22;17164;48.590;11.410;2023-08-17T05:53:45;19.40;99.90
30371;DHT22;17164;48.590;11.410;2023-08-17T05:56:11;19.50;99.90
30371;DHT22;17164;48.590;11.410;2023-08-17T05:58:36;19.60;99.90
30371;DHT22;17164;48.590;11.410;2023-08-17T06:01:06;19.70;99.90
30371;DHT22;17164;48.590;11.410;2023-08-17T06:03:33;19.70;99.90
30371;DHT22;17164;48.590;11.410;2023-08-17T06:05:59;19.80;99.90
30371;DHT22;17164;48.590;11.410;2023-08-17T06:08:24;19.90;99.90
30371;DHT22;17164;48.590;11.410;2023-08-17T06:10:50;20.00;99.90
30371;DHT22;17164;48.590;11.410;2023-08-17T06:13:15;20.10;99.90
30371;DHT22;17164;48.590;11.410;2023-08-17T06:15:41;20.10;99.90
30371;DHT22;17164;48.590;11.410;2023-08-17T06:18:07;20.20;99.90
30371;DHT22;17164;48.590;11.410;2023-08-17T06:20:32;20.30;99.90
30371;DHT22;17164;48.590;11.410;2023-08-17T06:22:58;20.40;99.90
30371;DHT22;17164;48.590;11.410;2023-08-17T06:25:23;20.50;99.90
30371;DHT22;17164;48.590;11.410;2023-08-17T06:27:51;20.50;99.90
30371;DHT22;17164;48.590;11.410;2023-08-17T06:30:17;20.60;99.90
30371;DHT22;17164;48.590;11.410;2023-08-17T06:32:42;20.70;99.90
30371;DHT22;17164;48.590;11.410;2023-08-17T06:35:08;20.80;99.90
30371;DHT22;17164;48.590;11.410;2023-08-17T06:37:34;20.90;99.90
30371;DHT22;17164;48.590;11.410;2023-08-17T06:40:00;21.00;99.90
30371;DHT22;17164;48.590;11.410;2023-08-17T06:42:26;21.10;99.90
30371;DHT22;17164;48.590;11.410;2023-08-17T06:44:52;21.10;99.90
30371;DHT22;17164;48.590;11.410;2023-08-17T06:47:18;21.20;99.90
30371;DHT22;17164;48.590;11.410;2023-08-17T06:49:43;21.30;99.90
30371;DHT22;17164;48.590;11.410;2023-08-17T06:52:09;21.40;99.90
30371;DHT22;17164;48.590;11.410;2023-08-17T06:54:34;21.50;99.90
30371;DHT22;17164;48.590;11.410;2023-08-17T06:57:00;21.60;99.90
30371;DHT22;17164;48.590;11.410;2023-08-17T06:59:26;21.60;99.90
30371;DHT22;17164;48.590;11.410;2023-08-17T07:01:52;21.70;99.90
30371;DHT22;17164;48.590;11.410;2023-08-17T07:04:18;21.80;99.90
30371;DHT22;17164;48.590;11.410;2023-08-17T07:06:43;21.90;99.90
30371;DHT22;17164;48.590;11.410;2023-08-17T07:09:09;22.00;99.90
30371;DHT22;17164;48.590;11.410;2023-08-17T07:11:38;22.00;99.90
30371;DHT22;17164;48.590;11.410;2023-08-17T07:14:04;22.10;99.90
30371;DHT22;17164;48.590;11.410;2023-08-17T07:16:31;22.20;99.90
30371;DHT22;17164;48.590;11.410;2023-08-17T07:18:57;22.30;99.90
30371;DHT22;17164;48.590;11.410;2023-08-17T07:21:23;22.40;99.90
30371;DHT22;17164;48.590;11.410;2023-08-17T07:23:49;22.50;99.90
30371;DHT22;17164;48.590;11.410;2023-08-17T07:26:15;22.60;99.90
30371;DHT22;17164;48.590;11.410;2023-08-17T07:28:41;22.70;99.90
30371;DHT22;17164;48.590;11.410;2023-08-17T07:31:06;22.80;99.90
30371;DHT22;17164;48.590;11.410;2023-08-17T07:33:32;22.90;99.90
30371;DHT22;17164;48.590;11.410;2023-08-17T07:35:58;22.90;99.90
30371;DHT22;17164;48.590;11.410;2023-08-17T07:38:24;23.00;99.90
30371;DHT22;17164;48.590;11.410;2023-08-17T07:40:49;23.10;99.90
30371;DHT22;17164;48.590;11.410;2023-08-17T07:43:15;23.20;99.90
30371;DHT22;17164;48.590;11.410;2023-08-17T07:45:40;23.20;99.90
30371;DHT22;17164;48.590;11.410;2023-08-17T07:48:06;23.40;99.90
30371;DHT22;17164;48.590;11.410;2023-08-17T07:50:33;23.40;99.90
30371;DHT22;17164;48.590;11.410;2023-08-17T07:52:58;23.50;99.90
30371;DHT22;17164;48.590;11.410;2023-08-17T07:55:26;23.60;99.90
30371;DHT22;17164;48.590;11.410;2023-08-17T07:57:51;23.70;99.90
30371;DHT22;17164;48.590;11.410;2023-08-17T08:00:17;23.80;99.90
30371;DHT22;17164;48.590;11.410;2023-08-17T08:02:43;23.90;99.90
30371;DHT22;17164;48.590;11.410;2023-08-17T08:05:08;23.90;99.90
30371;DHT22;17164;48.590;11.410;2023-08-17T08:07:34;24.00;99.90
30371;DHT22;17164;48.590;11.410;2023-08-17T08:10:00;24.10;99.90
30371;DHT22;17164;48.590;11.410;2023-08-17T08:12:25;24.20;99.90
30371;DHT22;17164;48.590;11.410;2023-08-17T08:14:51;24.20;99.90
30371;DHT22;17164;48.590;11.410;2023-08-17T08:17:16;24.30;99.90
30371;DHT22;17164;48.590;11.410;2023-08-17T08:19:42;24.40;99.90
30371;DHT22;17164;48.590;11.410;2023-08-17T08:22:08;24.50;99.90
30371;DHT22;17164;48.590;11.410;2023-08-17T08:24:33;24.50;99.90
30371;DHT22;17164;48.590;11.410;2023-08-17T08:27:00;24.60;99.90
30371;DHT22;17164;48.590;11.410;2023-08-17T08:29:27;24.80;99.90
30371;DHT22;17164;48.590;11.410;2023-08-17T08:31:53;24.90;99.90
30371;DHT22;17164;48.590;11.410;2023-08-17T08:34:18;24.90;99.90
30371;DHT22;17164;48.590;11.410;2023-08-17T08:36:44;25.00;99.90
30371;DHT22;17164;48.590;11.410;2023-08-17T08:39:10;25.10;99.90
30371;DHT22;17164;48.590;11.410;2023-08-17T08:41:37;25.30;99.90
30371;DHT22;17164;48.590;11.410;2023-08-17T08:44:04;25.30;99.90
30371;DHT22;17164;48.590;11.410;2023-08-17T08:46:30;25.40;99.90
30371;DHT22;17164;48.590;11.410;2023-08-17T08:48:58;25.60;99.90
30371;DHT22;17164;48.590;11.410;2023-08-17T08:51:27;25.70;99.90
30371;DHT22;17164;48.590;11.410;2023-08-17T08:54:01;25.80;99.90
30371;DHT22;17164;48.590;11.410;2023-08-17T08:56:35;25.80;99.90
30371;DHT22;17164;48.590;11.410;2023-08-17T08:59:03;25.90;99.90
30371;DHT22;17164;48.590;11.410;2023-08-17T09:01:30;26.00;99.90
30371;DHT22;17164;48.590;11.410;2023-08-17T09:03:59;26.10;99.90
30371;DHT22;17164;48.590;11.410;2023-08-17T09:06:26;26.10;99.90
30371;DHT22;17164;48.590;11.410;2023-08-17T09:08:53;26.20;99.90
30371;DHT22;17164;48.590;11.410;2023-08-17T09:11:18;26.30;99.90
30371;DHT22;17164;48.590;11.410;2023-08-17T09:13:44;26.40;99.90
30371;DHT22;17164;48.590;11.410;2023-08-17T09:16:10;26.50;99.90
30371;DHT22;17164;48.590;11.410;2023-08-17T09:18:35;26.60;99.90
30371;DHT22;17164;48.590;11.410;2023-08-17T09:21:01;26.70;99.90
30371;DHT22;17164;48.590;11.410;2023-08-17T09:23:27;26.70;99.90
30371;DHT22;17164;48.590;11.410;2023-08-17T09:25:52;26.80;99.90
30371;DHT22;17164;48.590;11.410;2023-08-17T09:28:23;26.80;99.90
30371;DHT22;17164;48.590;11.410;2023-08-17T09:30:58;26.90;99.90
30371;DHT22;17164;48.590;11.410;2023-08-17T09:33:26;27.00;99.90
30371;DHT22;17164;48.590;11.410;2023-08-17T09:35:53;27.00;99.90
30371;DHT22;17164;48.590;11.410;2023-08-17T09:38:19;27.20;99.90
30371;DHT22;17164;48.590;11.410;2023-08-17T09:40:46;27.30;99.90
30371;DHT22;17164;48.590;11.410;2023-08-17T09:43:12;27.40;99.90
30371;DHT22;17164;48.590;11.410;2023-08-17T09:45:38;27.50;99.90
30371;DHT22;17164;48.590;11.410;2023-08-17T09:48:06;27.50;99.90
30371;DHT22;17164;48.590;11.410;2023-08-17T09:50:33;27.60;99.90
30371;DHT22;17164;48.590;11.410;2023-08-17T09:52:58;27.60;99.90
30371;DHT22;17164;48.590;11.410;2023-08-17T09:55:24;27.70;99.90
30371;DHT22;17164;48.590;11.410;2023-08-17T09:57:51;27.70;99.90
30371;DHT22;17164;48.590;11.410;2023-08-17T10:00:20;27.80;99.90
30371;DHT22;17164;48.590;11.410;2023-08-17T10:02:49;27.90;99.90
30371;DHT22;17164;48.590;11.410;2023-08-17T10:05:20;27.90;99.90
30371;DHT22;17164;48.590;11.410;2023-08-17T10:07:54;28.00;99.90
30371;DHT22;17164;48.590;11.410;2023-08-17T10:10:25;28.00;99.90
30371;DHT22;17164;48.590;11.410;2023-08-17T10:13:10;28.10;99.90
30371;DHT22;17164;48.590;11.410;2023-08-17T10:15:55;28.00;99.90
30371;DHT22;17164;48.590;11.410;2023-08-17T10:21:02;27.90;99.90
30371;DHT22;17164;48.590;11.410;2023-08-17T10:23:30;27.90;99.90
30371;DHT22;17164;48.590;11.410;2023-08-17T10:25:56;28.00;99.90
30371;DHT22;17164;48.590;11.410;2023-08-17T10:28:23;28.00;99.90
30371;DHT22;17164;48.590;11.410;2023-08-17T10:30:49;28.10;99.90
30371;DHT22;17164;48.590;11.410;2023-08-17T10:33:16;28.10;99.90
30371;DHT22;17164;48.590;11.410;2023-08-17T10:35:42;28.20;99.90
30371;DHT22;17164;48.590;11.410;2023-08-17T10:38:08;28.30;99.90
30371;DHT22;17164;48.590;11.410;2023-08-17T10:40:41;28.40;99.90
30371;DHT22;17164;48.590;11.410;2023-08-17T10:43:07;28.50;99.90
30371;DHT22;17164;48.590;11.410;2023-08-17T10:45:33;28.60;99.90
30371;DHT22;17164;48.590;11.410;2023-08-17T10:50:33;29.00;99.90
30371;DHT22;17164;48.590;11.410;2023-08-17T10:53:13;29.10;99.90
30371;DHT22;17164;48.590;11.410;2023-08-17T10:55:44;29.20;99.90
30371;DHT22;17164;48.590;11.410;2023-08-17T10:58:10;29.40;99.90
30371;DHT22;17164;48.590;11.410;2023-08-17T11:00:40;29.50;99.90
30371;DHT22;17164;48.590;11.410;2023-08-17T11:03:09;29.50;99.90
30371;DHT22;17164;48.590;11.410;2023-08-17T11:08:03;29.50;99.90
30371;DHT22;17164;48.590;11.410;2023-08-17T11:10:29;29.50;99.90
30371;DHT22;17164;48.590;11.410;2023-08-17T11:12:56;29.50;99.90
30371;DHT22;17164;48.590;11.410;2023-08-17T11:15:45;29.50;99.90
30371;DHT22;17164;48.590;11.410;2023-08-17T11:18:13;29.60;99.90
30371;DHT22;17164;48.590;11.410;2023-08-17T11:20:41;29.80;99.90
30371;DHT22;17164;48.590;11.410;2023-08-17T11:23:07;29.80;98.40
30371;DHT22;17164;48.590;11.410;2023-08-17T11:25:34;29.90;98.80
30371;DHT22;17164;48.590;11.410;2023-08-17T11:28:03;30.00;99.00
30371;DHT22;17164;48.590;11.410;2023-08-17T11:30:31;30.10;99.70
30371;DHT22;17164;48.590;11.410;2023-08-17T11:32:59;30.10;98.50
30371;DHT22;17164;48.590;11.410;2023-08-17T11:35:25;30.10;98.20
30371;DHT22;17164;48.590;11.410;2023-08-17T11:37:51;30.00;97.30
30371;DHT22;17164;48.590;11.410;2023-08-17T11:40:17;29.80;97.30
30371;DHT22;17164;48.590;11.410;2023-08-17T11:42:44;29.70;97.70
30371;DHT22;17164;48.590;11.410;2023-08-17T11:45:10;29.70;97.90
30371;DHT22;17164;48.590;11.410;2023-08-17T11:47:37;29.80;97.90
30371;DHT22;17164;48.590;11.410;2023-08-17T11:50:04;29.80;97.20
30371;DHT22;17164;48.590;11.410;2023-08-17T11:52:31;29.90;96.20
30371;DHT22;17164;48.590;11.410;2023-08-17T11:55:05;30.00;96.90
30371;DHT22;17164;48.590;11.410;2023-08-17T11:57:34;29.90;97.80
30371;DHT22;17164;48.590;11.410;2023-08-17T12:00:01;29.90;95.80
30371;DHT22;17164;48.590;11.410;2023-08-17T12:02:27;29.90;95.20
30371;DHT22;17164;48.590;11.410;2023-08-17T12:04:55;29.80;95.20
30371;DHT22;17164;48.590;11.410;2023-08-17T12:07:23;29.80;95.20
30371;DHT22;17164;48.590;11.410;2023-08-17T12:09:50;29.80;95.50
30371;DHT22;17164;48.590;11.410;2023-08-17T12:12:22;29.80;95.70
30371;DHT22;17164;48.590;11.410;2023-08-17T12:14:48;29.80;96.20
30371;DHT22;17164;48.590;11.410;2023-08-17T12:17:19;29.90;96.40
30371;DHT22;17164;48.590;11.410;2023-08-17T12:19:48;30.00;94.80
30371;DHT22;17164;48.590;11.410;2023-08-17T12:22:14;30.10;97.00
30371;DHT22;17164;48.590;11.410;2023-08-17T12:24:40;30.10;97.30
30371;DHT22;17164;48.590;11.410;2023-08-17T12:27:06;30.10;95.50
30371;DHT22;17164;48.590;11.410;2023-08-17T12:29:32;30.00;95.20
30371;DHT22;17164;48.590;11.410;2023-08-17T12:31:58;30.00;94.80
30371;DHT22;17164;48.590;11.410;2023-08-17T12:34:25;30.10;95.10
30371;DHT22;17164;48.590;11.410;2023-08-17T12:36:50;30.20;94.60
30371;DHT22;17164;48.590;11.410;2023-08-17T12:39:16;30.30;94.20
30371;DHT22;17164;48.590;11.410;2023-08-17T12:41:42;30.40;94.30
30371;DHT22;17164;48.590;11.410;2023-08-17T12:44:09;30.50;94.30
30371;DHT22;17164;48.590;11.410;2023-08-17T12:46:37;30.50;94.00
30371;DHT22;17164;48.590;11.410;2023-08-17T12:49:03;30.50;92.40
30371;DHT22;17164;48.590;11.410;2023-08-17T12:51:28;30.60;91.60
30371;DHT22;17164;48.590;11.410;2023-08-17T12:53:54;30.60;90.80
30371;DHT22;17164;48.590;11.410;2023-08-17T12:56:19;30.70;91.00
30371;DHT22;17164;48.590;11.410;2023-08-17T12:58:45;30.80;91.60
30371;DHT22;17164;48.590;11.410;2023-08-17T13:01:11;30.90;93.60
30371;DHT22;17164;48.590;11.410;2023-08-17T13:03:37;31.00;91.80
30371;DHT22;17164;48.590;11.410;2023-08-17T13:06:02;31.10;91.90
30371;DHT22;17164;48.590;11.410;2023-08-17T13:08:28;31.20;89.00
30371;DHT22;17164;48.590;11.410;2023-08-17T13:10:54;31.20;87.60
30371;DHT22;17164;48.590;11.410;2023-08-17T13:13:20;31.20;87.50
30371;DHT22;17164;48.590;11.410;2023-08-17T13:15:46;31.20;86.60
30371;DHT22;17164;48.590;11.410;2023-08-17T13:18:11;31.20;87.60
30371;DHT22;17164;48.590;11.410;2023-08-17T13:20:37;31.30;83.20
30371;DHT22;17164;48.590;11.410;2023-08-17T13:23:04;31.30;86.00
30371;DHT22;17164;48.590;11.410;2023-08-17T13:25:30;31.40;85.80
30371;DHT22;17164;48.590;11.410;2023-08-17T13:27:55;31.40;84.70
30371;DHT22;17164;48.590;11.410;2023-08-17T13:30:21;31.50;83.60
30371;DHT22;17164;48.590;11.410;2023-08-17T13:32:47;31.60;87.30
30371;DHT22;17164;48.590;11.410;2023-08-17T13:35:13;31.60;88.00
30371;DHT22;17164;48.590;11.410;2023-08-17T13:37:38;31.70;87.50
30371;DHT22;17164;48.590;11.410;2023-08-17T13:40:05;31.70;84.60
30371;DHT22;17164;48.590;11.410;2023-08-17T13:42:31;31.70;82.60
30371;DHT22;17164;48.590;11.410;2023-08-17T13:44:57;31.80;85.90
30371;DHT22;17164;48.590;11.410;2023-08-17T13:47:23;31.80;86.00
30371;DHT22;17164;48.590;11.410;2023-08-17T13:49:48;31.90;85.40
30371;DHT22;17164;48.590;11.410;2023-08-17T13:52:14;31.90;85.60
30371;DHT22;17164;48.590;11.410;2023-08-17T13:54:39;32.00;80.80
30371;DHT22;17164;48.590;11.410;2023-08-17T13:57:05;32.00;82.50
30371;DHT22;17164;48.590;11.410;2023-08-17T13:59:31;32.10;82.60
30371;DHT22;17164;48.590;11.410;2023-08-17T14:01:57;32.10;80.50
30371;DHT22;17164;48.590;11.410;2023-08-17T14:04:22;32.30;81.40
30371;DHT22;17164;48.590;11.410;2023-08-17T14:06:48;32.30;77.80
30371;DHT22;17164;48.590;11.410;2023-08-17T14:09:14;32.30;76.70
30371;DHT22;17164;48.590;11.410;2023-08-17T14:11:39;32.30;77.50
30371;DHT22;17164;48.590;11.410;2023-08-17T14:14:05;32.30;76.00
30371;DHT22;17164;48.590;11.410;2023-08-17T14:16:31;32.30;76.90
30371;DHT22;17164;48.590;11.410;2023-08-17T14:18:56;32.20;74.40
30371;DHT22;17164;48.590;11.410;2023-08-17T14:21:22;32.20;75.50
30371;DHT22;17164;48.590;11.410;2023-08-17T14:23:48;32.20;76.10
30371;DHT22;17164;48.590;11.410;2023-08-17T14:26:14;32.20;75.10
30371;DHT22;17164;48.590;11.410;2023-08-17T14:28:40;32.20;76.00
30371;DHT22;17164;48.590;11.410;2023-08-17T14:31:06;32.10;79.30
30371;DHT22;17164;48.590;11.410;2023-08-17T14:33:31;32.10;78.10
30371;DHT22;17164;48.590;11.410;2023-08-17T14:35:57;32.10;77.90
30371;DHT22;17164;48.590;11.410;2023-08-17T14:38:22;32.10;78.40
30371;DHT22;17164;48.590;11.410;2023-08-17T14:40:48;32.10;78.40
30371;DHT22;17164;48.590;11.410;2023-08-17T14:43:15;32.20;79.60
30371;DHT22;17164;48.590;11.410;2023-08-17T14:45:42;32.30;79.50
30371;DHT22;17164;48.590;11.410;2023-08-17T14:48:08;32.40;79.10
30371;DHT22;17164;48.590;11.410;2023-08-17T14:50:35;32.50;78.50
30371;DHT22;17164;48.590;11.410;2023-08-17T14:53:01;32.70;76.30
30371;DHT22;17164;48.590;11.410;2023-08-17T14:55:31;32.80;74.70
30371;DHT22;17164;48.590;11.410;2023-08-17T14:57:57;33.00;77.10
30371;DHT22;17164;48.590;11.410;2023-08-17T15:00:24;33.20;75.90
30371;DHT22;17164;48.590;11.410;2023-08-17T15:02:50;33.30;74.80
30371;DHT22;17164;48.590;11.410;2023-08-17T15:05:15;33.40;74.20
30371;DHT22;17164;48.590;11.410;2023-08-17T15:07:41;33.40;74.40
30371;DHT22;17164;48.590;11.410;2023-08-17T15:10:07;33.30;73.40
30371;DHT22;17164;48.590;11.410;2023-08-17T15:12:33;33.20;75.40
30371;DHT22;17164;48.590;11.410;2023-08-17T15:14:58;33.00;74.80
30371;DHT22;17164;48.590;11.410;2023-08-17T15:17:24;32.60;74.60
30371;DHT22;17164;48.590;11.410;2023-08-17T15:19:49;32.20;75.40